createdAt,value
2017-08-12T00:00:34.104Z,997.53
2017-08-12T00:01:44.151Z,997.49
2017-08-12T00:02:54.567Z,997.53
2017-08-12T00:04:04.916Z,997.5
2017-08-12T00:05:14.950Z,997.56
2017-08-12T00:06:25.304Z,997.55
2017-08-12T00:07:35.358Z,997.55
2017-08-12T00:08:45.758Z,997.57
2017-08-12T00:09:56.114Z,997.57
2017-08-12T00:11:06.478Z,997.51
2017-08-12T00:12:16.816Z,997.52
2017-08-12T00:13:27.176Z,997.54
2017-08-12T00:14:37.578Z,997.49
2017-08-12T00:15:47.963Z,997.51
2017-08-12T00:16:58.300Z,997.56
2017-08-12T00:18:08.332Z,997.53
2017-08-12T00:19:18.678Z,997.52
2017-08-12T00:20:29.082Z,997.51
2017-08-12T00:21:39.132Z,997.47
2017-08-12T00:22:49.485Z,997.51
2017-08-12T00:23:59.531Z,997.51
2017-08-12T00:25:09.873Z,997.56
2017-08-12T00:26:20.269Z,997.61
2017-08-12T00:27:30.614Z,997.56
2017-08-12T00:28:40.966Z,997.58
2017-08-12T00:29:50.701Z,997.57
2017-08-12T00:31:01.050Z,997.6
2017-08-12T00:32:11.446Z,997.59
2017-08-12T00:33:21.482Z,997.62
2017-08-12T00:34:31.834Z,997.6
2017-08-12T00:35:41.875Z,997.6
2017-08-12T00:36:52.222Z,997.59
2017-08-12T00:38:02.629Z,997.53
2017-08-12T00:39:12.995Z,997.52
2017-08-12T00:40:23.390Z,997.44
2017-08-12T00:41:33.410Z,997.46
2017-08-12T00:42:43.770Z,997.47
2017-08-12T00:43:54.165Z,997.49
2017-08-12T00:45:04.535Z,997.49
2017-08-12T00:46:14.557Z,997.49
2017-08-12T00:47:24.912Z,997.44
2017-08-12T00:48:34.960Z,997.43
2017-08-12T00:49:45.366Z,997.44
2017-08-12T00:50:55.406Z,997.52
2017-08-12T00:52:05.453Z,997.51
2017-08-12T00:53:15.785Z,997.51
2017-08-12T00:54:26.141Z,997.53
2017-08-12T00:55:36.556Z,997.52
2017-08-12T00:56:46.903Z,997.61
2017-08-12T00:57:57.249Z,997.61
2017-08-12T00:59:07.593Z,997.64
2017-08-12T01:00:17.949Z,997.64
2017-08-12T01:01:29.140Z,997.69
2017-08-12T01:02:39.495Z,997.79
2017-08-12T01:03:49.869Z,997.79
2017-08-12T01:05:00.218Z,997.81
2017-08-12T01:06:10.267Z,997.88
2017-08-12T01:07:20.355Z,997.9
2017-08-12T01:08:30.708Z,997.89
2017-08-12T01:09:40.437Z,997.96
2017-08-12T01:10:50.807Z,997.88
2017-08-12T01:12:00.858Z,997.87
2017-08-12T01:13:10.961Z,997.91
2017-08-12T01:14:21.313Z,997.87
2017-08-12T01:15:31.662Z,997.86
2017-08-12T01:16:42.031Z,997.83
2017-08-12T01:17:52.371Z,997.83
2017-08-12T01:19:02.775Z,997.84
2017-08-12T01:20:13.122Z,997.85
2017-08-12T01:21:23.483Z,997.84
2017-08-12T01:22:33.844Z,997.85
2017-08-12T01:23:43.864Z,997.8
2017-08-12T01:24:54.287Z,997.81
2017-08-12T01:26:04.321Z,997.81
2017-08-12T01:27:14.656Z,997.75
2017-08-12T01:28:24.710Z,997.74
2017-08-12T01:29:35.067Z,997.67
2017-08-12T01:30:45.459Z,997.65
2017-08-12T01:31:55.839Z,997.68
2017-08-12T01:33:06.185Z,997.64
2017-08-12T01:34:16.227Z,997.66
2017-08-12T01:35:26.583Z,997.57
2017-08-12T01:36:36.980Z,997.56
2017-08-12T01:37:47.028Z,997.56
2017-08-12T01:38:57.392Z,997.55
2017-08-12T01:40:07.419Z,997.57
2017-08-12T01:41:17.771Z,997.5
2017-08-12T01:42:28.263Z,997.45
2017-08-12T01:43:38.624Z,997.38
2017-08-12T01:44:48.986Z,997.36
2017-08-12T01:45:59.025Z,997.38
2017-08-12T01:47:09.062Z,997.35
2017-08-12T01:48:19.465Z,997.32
2017-08-12T01:49:29.506Z,997.3
2017-08-12T01:50:39.869Z,997.31
2017-08-12T01:51:50.222Z,997.29
2017-08-12T01:53:00.249Z,997.31
2017-08-12T01:54:10.655Z,997.34
2017-08-12T01:55:20.997Z,997.31
2017-08-12T01:56:31.029Z,997.32
2017-08-12T01:57:41.381Z,997.3
2017-08-12T01:58:51.430Z,997.33
2017-08-12T02:00:01.831Z,997.32
2017-08-12T02:01:12.179Z,997.35
2017-08-12T02:02:22.223Z,997.29
2017-08-12T02:03:32.590Z,997.29
2017-08-12T02:04:42.617Z,997.3
2017-08-12T02:05:53.018Z,997.31
2017-08-12T02:07:03.051Z,997.31
2017-08-12T02:08:13.404Z,997.28
2017-08-12T02:09:23.770Z,997.29
2017-08-12T02:10:33.540Z,997.3
2017-08-12T02:11:43.628Z,997.34
2017-08-12T02:12:53.984Z,997.34
2017-08-12T02:14:04.364Z,997.36
2017-08-12T02:15:14.404Z,997.35
2017-08-12T02:16:24.749Z,997.34
2017-08-12T02:17:34.846Z,997.38
2017-08-12T02:18:45.186Z,997.41
2017-08-12T02:19:55.543Z,997.45
2017-08-12T02:21:05.904Z,997.42
2017-08-12T02:22:16.252Z,997.41
2017-08-12T02:23:26.663Z,997.4
2017-08-12T02:24:36.729Z,997.4
2017-08-12T02:25:47.064Z,997.39
2017-08-12T02:26:56.161Z,997.38
2017-08-12T02:28:06.523Z,997.38
2017-08-12T02:29:16.923Z,997.37
2017-08-12T02:30:27.261Z,997.39
2017-08-12T02:31:37.305Z,997.38
2017-08-12T02:32:47.345Z,997.34
2017-08-12T02:33:57.712Z,997.34
2017-08-12T02:35:08.102Z,997.3
2017-08-12T02:36:18.156Z,997.29
2017-08-12T02:37:28.514Z,997.32
2017-08-12T02:38:38.563Z,997.27
2017-08-12T02:39:48.921Z,997.24
2017-08-12T02:40:58.683Z,997.24
2017-08-12T02:42:09.021Z,997.22
2017-08-12T02:43:19.360Z,997.2
2017-08-12T02:44:29.713Z,997.17
2017-08-12T02:45:40.046Z,997.2
2017-08-12T02:46:50.447Z,997.19
2017-08-12T02:48:01.944Z,997.16
2017-08-12T02:49:12.286Z,997.13
2017-08-12T02:50:22.017Z,997.16
2017-08-12T02:51:32.373Z,997.18
2017-08-12T02:52:42.157Z,997.13
2017-08-12T02:53:52.513Z,997.12
2017-08-12T02:55:02.891Z,997.13
2017-08-12T02:56:12.918Z,997.12
2017-08-12T02:57:23.275Z,997.13
2017-08-12T02:58:33.687Z,997.12
2017-08-12T02:59:44.042Z,997.1
2017-08-12T03:00:53.766Z,997.06
2017-08-12T03:02:04.105Z,997.06
2017-08-12T03:33:31.098Z,997.02
2017-08-12T03:34:41.444Z,997.05
2017-08-12T03:35:51.450Z,997.01
2017-08-12T03:37:01.494Z,997.01
2017-08-12T03:38:11.853Z,997
2017-08-12T03:39:21.935Z,996.97
2017-08-12T03:40:31.968Z,997.02
2017-08-12T03:41:42.001Z,996.92
2017-08-12T03:42:51.419Z,996.96
2017-08-12T03:44:01.781Z,996.94
2017-08-12T03:45:12.180Z,996.96
2017-08-12T03:46:22.545Z,996.96
2017-08-12T03:47:32.602Z,996.93
2017-08-12T03:48:42.636Z,996.9
2017-08-12T03:49:52.986Z,996.94
2017-08-12T03:51:03.391Z,996.98
2017-08-12T03:52:13.736Z,997
2017-08-12T03:53:24.084Z,997.01
2017-08-12T03:54:34.417Z,996.96
2017-08-12T03:55:44.153Z,996.93
2017-08-12T03:56:54.549Z,996.94
2017-08-12T03:58:04.928Z,996.97
2017-08-12T03:59:16.921Z,996.99
2017-08-12T04:00:26.968Z,996.98
2017-08-12T04:01:37.326Z,996.99
2017-08-12T04:02:47.716Z,996.98
2017-08-12T04:03:58.054Z,997.06
2017-08-12T04:05:08.392Z,997.07
2017-08-12T04:06:18.741Z,997.06
2017-08-12T04:07:29.617Z,997.09
2017-08-12T04:08:39.706Z,997.06
2017-08-12T04:09:49.726Z,997.11
2017-08-12T04:10:59.160Z,997.15
2017-08-12T04:12:09.198Z,997.13
2017-08-12T04:13:19.535Z,997.19
2017-08-12T04:14:30.204Z,997.18
2017-08-12T04:15:40.554Z,997.18
2017-08-12T04:16:49.978Z,997.17
2017-08-12T04:18:00.015Z,997.13
2017-08-12T04:19:10.371Z,997.17
2017-08-12T04:20:20.790Z,997.17
2017-08-12T04:21:31.150Z,997.14
2017-08-12T04:22:41.496Z,997.14
2017-08-12T04:23:53.496Z,997.15
2017-08-12T04:25:03.853Z,997.1
2017-08-12T04:26:14.241Z,997.08
2017-08-12T04:27:24.590Z,997.12
2017-08-12T04:28:34.956Z,997.17
2017-08-12T04:29:44.997Z,997.12
2017-08-12T04:30:56.089Z,997.3
2017-08-12T04:32:06.999Z,997.17
2017-08-12T04:33:17.368Z,997.21
2017-08-12T04:34:27.395Z,997.18
2017-08-12T04:35:37.426Z,997.13
2017-08-12T04:36:47.472Z,997.14
2017-08-12T04:37:57.863Z,997.15
2017-08-12T04:39:07.890Z,997.16
2017-08-12T04:40:17.918Z,997.18
2017-08-12T04:41:28.263Z,997.19
2017-08-12T04:42:38.628Z,997.17
2017-08-12T04:43:49.038Z,997.16
2017-08-12T04:44:59.394Z,997.17
2017-08-12T04:46:09.128Z,997.19
2017-08-12T04:47:19.475Z,997.16
2017-08-12T04:48:29.196Z,997.16
2017-08-12T04:49:39.598Z,997.18
2017-08-12T04:50:49.643Z,997.2
2017-08-12T04:51:59.979Z,997.16
2017-08-12T04:53:10.335Z,997.2
2017-08-12T04:54:20.701Z,997.67
2017-08-12T04:55:30.800Z,997.68
2017-08-12T04:56:41.178Z,997.81
2017-08-12T04:57:51.218Z,997.8
2017-08-12T04:59:01.271Z,997.78
2017-08-12T05:00:11.324Z,997.72
2017-08-12T05:01:21.405Z,997.63
2017-08-12T05:02:31.770Z,997.58
2017-08-12T05:03:41.813Z,997.47
2017-08-12T05:04:52.157Z,997.55
2017-08-12T05:06:02.522Z,997.51
2017-08-12T05:07:12.911Z,997.49
2017-08-12T05:08:23.270Z,997.44
2017-08-12T05:09:33.630Z,997.44
2017-08-12T05:10:44.006Z,997.44
2017-08-12T05:11:54.356Z,997.43
2017-08-12T05:13:04.765Z,997.41
2017-08-12T05:14:14.837Z,997.41
2017-08-12T05:15:24.878Z,997.38
2017-08-12T05:16:35.232Z,997.44
2017-08-12T05:17:45.604Z,997.42
2017-08-12T05:18:56.022Z,997.38
2017-08-12T05:20:06.390Z,997.55
2017-08-12T05:21:16.744Z,997.42
2017-08-12T05:22:27.099Z,997.44
2017-08-12T05:23:37.477Z,997.46
2017-08-12T05:24:47.864Z,997.43
2017-08-12T05:25:58.226Z,997.57
2017-08-12T05:27:08.590Z,997.55
2017-08-12T05:28:19.009Z,997.8
2017-08-12T05:29:29.361Z,998.47
2017-08-12T05:30:39.762Z,998.66
2017-08-12T05:31:49.791Z,998.28
2017-08-12T05:32:59.827Z,998.14
2017-08-12T05:34:09.848Z,998.24
2017-08-12T05:35:19.899Z,998.27
2017-08-12T05:36:30.320Z,998.08
2017-08-12T05:37:40.358Z,998.13
2017-08-12T05:38:50.860Z,998.29
2017-08-12T05:40:00.598Z,998.47
2017-08-12T05:41:10.938Z,998.33
2017-08-12T05:42:21.346Z,998.37
2017-08-12T05:43:31.072Z,998.29
2017-08-12T05:44:41.125Z,998.22
2017-08-12T05:45:51.498Z,998.37
2017-08-12T05:47:01.537Z,998.45
2017-08-12T05:48:11.945Z,998.4
2017-08-12T05:49:22.317Z,997.86
2017-08-12T05:50:32.350Z,998.46
2017-08-12T05:51:42.384Z,998.43
2017-08-12T05:52:52.725Z,998.18
2017-08-12T05:54:03.135Z,997.78
2017-08-12T05:55:13.178Z,998.08
2017-08-12T05:56:23.526Z,998.47
2017-08-12T05:57:33.884Z,998.37
2017-08-12T05:58:43.933Z,998.17
2017-08-12T05:59:54.336Z,998
2017-08-12T06:01:04.693Z,997.69
2017-08-12T06:02:15.032Z,997.65
2017-08-12T06:03:25.362Z,997.7
2017-08-12T06:04:35.730Z,997.71
2017-08-12T06:05:46.133Z,997.7
2017-08-12T06:06:56.182Z,997.73
2017-08-12T06:08:06.568Z,997.73
2017-08-12T06:09:16.908Z,997.79
2017-08-12T06:10:27.272Z,997.73
2017-08-12T06:11:37.689Z,997.68
2017-08-12T06:12:48.046Z,997.66
2017-08-12T06:13:58.411Z,997.73
2017-08-12T06:15:08.760Z,997.67
2017-08-12T06:16:19.107Z,997.7
2017-08-12T06:17:28.900Z,997.67
2017-08-12T06:18:38.951Z,997.71
2017-08-12T06:19:49.323Z,997.77
2017-08-12T06:20:59.669Z,997.77
2017-08-12T06:22:10.021Z,997.76
2017-08-12T06:23:20.427Z,997.82
2017-08-12T06:24:30.469Z,997.77
2017-08-12T06:25:40.513Z,997.85
2017-08-12T06:26:50.902Z,997.85
2017-08-12T06:28:01.249Z,997.96
2017-08-12T06:29:11.345Z,997.89
2017-08-12T06:30:21.720Z,997.93
2017-08-12T06:31:31.757Z,997.97
2017-08-12T06:32:42.117Z,997.94
2017-08-12T06:33:52.468Z,998
2017-08-12T06:35:02.893Z,997.96
2017-08-12T06:36:13.245Z,998.05
2017-08-12T06:37:23.598Z,997.98
2017-08-12T06:38:33.638Z,998.03
2017-08-12T06:39:43.987Z,998.04
2017-08-12T06:40:54.398Z,998
2017-08-12T06:42:04.751Z,998.03
2017-08-12T06:43:14.811Z,998.03
2017-08-12T06:44:25.163Z,998.09
2017-08-12T06:45:35.201Z,998
2017-08-12T06:46:45.294Z,997.97
2017-08-12T06:47:55.642Z,997.99
2017-08-12T06:49:05.995Z,997.99
2017-08-12T06:50:16.361Z,998.05
2017-08-12T06:51:26.725Z,998.05
2017-08-12T06:52:37.120Z,998.12
2017-08-12T06:53:47.158Z,998.17
2017-08-12T06:54:57.202Z,998.34
2017-08-12T06:56:07.556Z,998.21
2017-08-12T06:57:18.168Z,998.28
2017-08-12T06:58:28.266Z,998.21
2017-08-12T06:59:38.326Z,998.33
2017-08-12T07:00:48.388Z,998.24
2017-08-12T07:01:58.755Z,998.34
2017-08-12T07:03:09.112Z,998.3
2017-08-12T07:04:19.204Z,998.28
2017-08-12T07:05:29.555Z,998.32
2017-08-12T07:06:39.618Z,998.37
2017-08-12T07:07:49.656Z,998.25
2017-08-12T07:08:59.383Z,998.32
2017-08-12T07:10:09.831Z,998.32
2017-08-12T07:11:19.884Z,998.3
2017-08-12T07:12:30.248Z,998.25
2017-08-12T07:13:40.286Z,998.38
2017-08-12T07:14:50.639Z,998.3
2017-08-12T07:16:01.078Z,998.35
2017-08-12T07:17:11.419Z,998.34
2017-08-12T07:18:21.462Z,998.37
2017-08-12T07:19:31.826Z,998.34
2017-08-12T07:20:41.869Z,998.37
2017-08-12T07:21:52.286Z,998.29
2017-08-12T07:23:02.650Z,998.3
2017-08-12T07:24:12.991Z,998.28
2017-08-12T07:25:23.352Z,998.28
2017-08-12T07:26:33.408Z,998.29
2017-08-12T07:27:43.516Z,998.32
2017-08-12T07:28:53.548Z,998.31
2017-08-12T07:30:03.597Z,998.32
2017-08-12T07:31:13.948Z,998.38
2017-08-12T07:32:24.308Z,998.33
2017-08-12T07:33:34.726Z,998.31
2017-08-12T07:34:45.091Z,998.28
2017-08-12T07:35:55.129Z,998.23
2017-08-12T07:37:05.487Z,998.26
2017-08-12T07:38:15.831Z,998.27
2017-08-12T07:39:26.243Z,998.27
2017-08-12T07:40:37.112Z,998.32
2017-08-12T07:41:47.483Z,998.34
2017-08-12T07:42:57.864Z,998.41
2017-08-12T07:44:07.930Z,998.41
2017-08-12T07:45:18.015Z,998.38
2017-08-12T07:46:28.063Z,998.43
2017-08-12T07:47:37.818Z,998.41
2017-08-12T07:48:48.180Z,998.38
2017-08-12T07:49:58.540Z,998.38
2017-08-12T07:51:08.939Z,998.39
2017-08-12T07:52:18.983Z,998.33
2017-08-12T07:53:29.341Z,998.25
2017-08-12T07:54:39.702Z,998.31
2017-08-12T07:55:50.053Z,998.25
2017-08-12T07:57:00.461Z,998.17
2017-08-12T07:58:10.827Z,998.21
2017-08-12T07:59:21.170Z,998.27
2017-08-12T08:00:32.936Z,998.19
2017-08-12T08:01:43.288Z,998.14
2017-08-12T08:02:53.406Z,998.16
2017-08-12T08:04:03.752Z,998.26
2017-08-12T08:05:14.117Z,998.2
2017-08-12T08:06:24.494Z,998.16
2017-08-12T08:07:34.844Z,998.05
2017-08-12T08:08:44.930Z,998.18
2017-08-12T08:09:55.289Z,998.18
2017-08-12T08:11:05.318Z,998.27
2017-08-12T08:12:15.691Z,998.23
2017-08-12T08:13:26.054Z,998.28
2017-08-12T08:14:36.484Z,998.18
2017-08-12T08:15:46.535Z,998.22
2017-08-12T08:16:56.917Z,998.17
2017-08-12T08:18:07.276Z,998.1
2017-08-12T08:19:18.678Z,998.12
2017-08-12T08:20:28.773Z,998.15
2017-08-12T08:21:39.131Z,998.17
2017-08-12T08:22:49.477Z,998.35
2017-08-12T08:23:59.853Z,998.28
2017-08-12T08:25:10.208Z,998.32
2017-08-12T08:26:20.632Z,998.38
2017-08-12T08:27:31.001Z,998.36
2017-08-12T08:28:41.754Z,998.36
2017-08-12T08:29:52.107Z,998.45
2017-08-12T08:31:02.500Z,998.5
2017-08-12T08:32:12.611Z,998.53
2017-08-12T08:33:22.958Z,998.5
2017-08-12T08:34:33.323Z,998.56
2017-08-12T08:35:43.683Z,998.55
2017-08-12T08:36:53.740Z,998.55
2017-08-12T08:38:04.168Z,998.6
2017-08-12T08:39:14.534Z,998.59
2017-08-12T08:40:24.909Z,998.6
2017-08-12T08:41:35.003Z,998.51
2017-08-12T08:42:45.048Z,998.53
2017-08-12T08:43:55.454Z,998.64
2017-08-12T08:45:05.810Z,998.69
2017-08-12T08:46:16.170Z,998.72
2017-08-12T08:47:26.532Z,998.85
2017-08-12T08:48:36.582Z,998.74
2017-08-12T08:49:46.710Z,998.75
2017-08-12T08:50:57.076Z,998.75
2017-08-12T08:52:07.425Z,998.73
2017-08-12T08:53:17.775Z,998.7
2017-08-12T08:54:28.121Z,998.72
2017-08-12T08:55:38.522Z,998.67
2017-08-12T08:56:48.882Z,998.82
2017-08-12T08:57:59.232Z,998.72
2017-08-12T08:59:09.592Z,998.83
2017-08-12T09:00:19.974Z,998.72
2017-08-12T09:01:30.401Z,998.75
2017-08-12T09:02:40.758Z,998.78
2017-08-12T09:03:51.107Z,998.81
2017-08-12T09:05:01.155Z,998.85
2017-08-12T09:06:11.509Z,998.91
2017-08-12T09:07:21.917Z,998.86
2017-08-12T09:08:32.252Z,998.92
2017-08-12T09:09:42.615Z,998.89
2017-08-12T09:10:52.971Z,998.94
2017-08-12T09:12:03.327Z,998.97
2017-08-12T09:13:13.757Z,998.93
2017-08-12T09:14:24.112Z,998.85
2017-08-12T09:15:34.473Z,998.99
2017-08-12T09:16:44.544Z,998.97
2017-08-12T09:17:54.922Z,999.08
2017-08-12T09:19:05.330Z,999.07
2017-08-12T09:20:15.705Z,998.91
2017-08-12T09:21:26.058Z,998.98
2017-08-12T09:22:36.413Z,998.96
2017-08-12T09:23:46.453Z,998.99
2017-08-12T09:24:56.901Z,998.94
2017-08-12T09:26:06.955Z,998.92
2017-08-12T09:27:16.999Z,998.94
2017-08-12T09:28:27.383Z,998.91
2017-08-12T09:29:37.753Z,998.91
2017-08-12T09:30:47.859Z,998.91
2017-08-12T09:31:57.602Z,998.88
2017-08-12T09:33:07.676Z,998.83
2017-08-12T09:34:17.711Z,998.89
2017-08-12T09:35:28.079Z,998.83
2017-08-12T09:36:38.502Z,998.93
2017-08-12T09:37:48.237Z,998.88
2017-08-12T09:38:58.602Z,998.96
2017-08-12T09:40:08.665Z,998.97
2017-08-12T09:41:19.044Z,999
2017-08-12T09:42:29.489Z,998.86
2017-08-12T09:43:39.524Z,998.79
2017-08-12T09:44:49.562Z,998.81
2017-08-12T09:45:59.933Z,998.77
2017-08-12T09:47:10.284Z,998.82
2017-08-12T09:48:20.700Z,998.82
2017-08-12T09:49:30.760Z,998.79
2017-08-12T09:50:41.128Z,998.8
2017-08-12T09:51:51.487Z,998.76
2017-08-12T09:53:01.534Z,998.83
2017-08-12T09:54:11.921Z,998.82
2017-08-12T09:55:21.990Z,998.82
2017-08-12T09:56:32.348Z,998.78
2017-08-12T09:57:42.692Z,998.74
2017-08-12T09:58:52.738Z,998.77
2017-08-12T10:00:02.831Z,998.8
2017-08-12T10:01:13.200Z,998.76
2017-08-12T10:02:23.563Z,998.76
2017-08-12T10:03:33.910Z,998.78
2017-08-12T10:04:43.970Z,998.82
2017-08-12T10:05:54.109Z,998.81
2017-08-12T10:07:04.487Z,998.9
2017-08-12T10:08:14.858Z,998.83
2017-08-12T10:09:25.219Z,998.85
2017-08-12T10:10:35.613Z,998.79
2017-08-12T10:11:45.721Z,998.82
2017-08-12T10:12:57.010Z,998.83
2017-08-12T10:14:07.382Z,998.85
2017-08-12T10:15:17.758Z,998.77
2017-08-12T10:16:28.135Z,998.79
2017-08-12T10:17:38.547Z,998.84
2017-08-12T10:18:49.850Z,998.79
2017-08-12T10:20:00.243Z,998.86
2017-08-12T10:21:10.295Z,998.78
2017-08-12T10:22:20.352Z,998.84
2017-08-12T10:23:30.775Z,998.7
2017-08-12T10:24:40.822Z,999.05
2017-08-12T10:25:50.859Z,998.84
2017-08-12T10:27:00.909Z,998.81
2017-08-12T10:28:11.282Z,998.79
2017-08-12T10:29:21.736Z,998.81
2017-08-12T10:30:32.097Z,998.69
2017-08-12T10:31:42.462Z,998.75
2017-08-12T10:32:52.806Z,998.83
2017-08-12T10:34:03.170Z,998.68
2017-08-12T10:35:13.577Z,998.76
2017-08-12T10:36:23.919Z,998.84
2017-08-12T10:37:33.651Z,998.74
2017-08-12T10:38:43.702Z,998.69
2017-08-12T10:39:54.069Z,998.79
2017-08-12T10:41:04.489Z,998.8
2017-08-12T10:42:14.553Z,998.8
2017-08-12T10:43:24.912Z,998.87
2017-08-12T10:44:34.961Z,998.82
2017-08-12T10:45:45.328Z,998.9
2017-08-12T10:46:55.749Z,998.84
2017-08-12T10:48:05.809Z,998.73
2017-08-12T10:49:16.167Z,998.67
2017-08-12T10:50:26.534Z,998.79
2017-08-12T10:51:36.898Z,998.7
2017-08-12T10:52:47.307Z,998.74
2017-08-12T10:53:57.378Z,998.8
2017-08-12T10:55:07.745Z,998.7
2017-08-12T10:56:18.112Z,998.76
2017-08-12T10:57:28.156Z,998.77
2017-08-12T10:58:38.254Z,998.82
2017-08-12T10:59:48.302Z,998.95
2017-08-12T11:00:58.666Z,998.77
2017-08-12T11:02:08.720Z,998.78
2017-08-12T11:03:18.777Z,998.76
2017-08-12T11:04:29.209Z,998.81
2017-08-12T11:05:39.265Z,998.8
2017-08-12T11:06:49.300Z,998.8
2017-08-12T11:07:59.345Z,998.91
2017-08-12T11:09:09.692Z,998.87
2017-08-12T11:10:20.102Z,998.97
2017-08-12T11:11:29.849Z,998.94
2017-08-12T11:12:39.895Z,998.92
2017-08-12T11:13:50.257Z,998.85
2017-08-12T11:15:00.639Z,998.82
2017-08-12T11:16:11.072Z,998.72
2017-08-12T11:17:21.177Z,998.85
2017-08-12T11:18:31.584Z,998.71
2017-08-12T11:19:41.949Z,998.68
2017-08-12T11:20:52.299Z,998.8
2017-08-12T11:22:02.739Z,998.8
2017-08-12T11:23:13.097Z,998.86
2017-08-12T11:24:23.152Z,998.81
2017-08-12T11:25:33.511Z,998.86
2017-08-12T11:26:43.878Z,998.92
2017-08-12T11:27:54.313Z,998.87
2017-08-12T11:29:04.037Z,998.92
2017-08-12T11:30:14.404Z,998.98
2017-08-12T11:31:24.759Z,999.07
2017-08-12T11:32:35.125Z,998.94
2017-08-12T11:33:45.533Z,999.05
2017-08-12T11:34:56.139Z,998.89
2017-08-12T11:36:06.202Z,998.88
2017-08-12T11:37:16.600Z,998.93
2017-08-12T11:38:26.955Z,998.85
2017-08-12T11:39:37.616Z,998.89
2017-08-12T11:40:47.989Z,998.98
2017-08-12T11:41:58.034Z,998.9
2017-08-12T11:43:08.389Z,998.92
2017-08-12T11:44:18.771Z,998.93
2017-08-12T11:45:29.172Z,998.92
2017-08-12T11:46:39.527Z,998.97
2017-08-12T11:47:49.584Z,999.02
2017-08-12T11:48:59.660Z,998.94
2017-08-12T11:50:09.720Z,998.92
2017-08-12T11:51:20.128Z,998.98
2017-08-12T11:52:30.510Z,998.99
2017-08-12T11:53:40.868Z,998.98
2017-08-12T11:54:51.224Z,999.04
2017-08-12T11:56:00.952Z,999.02
2017-08-12T11:57:11.368Z,999.1
2017-08-12T11:58:21.735Z,999.11
2017-08-12T11:59:32.105Z,999.14
2017-08-12T12:02:05.173Z,999.21
2017-08-12T12:03:15.588Z,999.23
2017-08-12T12:04:25.948Z,999.12
2017-08-12T12:05:36.008Z,999.19
2017-08-12T12:06:46.061Z,999.24
2017-08-12T12:07:56.472Z,999.26
2017-08-12T12:09:06.188Z,999.17
2017-08-12T12:10:16.572Z,999.14
2017-08-12T12:11:26.963Z,999.43
2017-08-12T12:12:37.357Z,999.15
2017-08-12T12:13:47.476Z,999.23
2017-08-12T12:14:57.821Z,999.1
2017-08-12T12:16:08.182Z,999.2
2017-08-12T12:17:18.559Z,999.33
2017-08-12T12:18:28.920Z,999.36
2017-08-12T12:19:39.019Z,999.24
2017-08-12T12:20:49.380Z,999.32
2017-08-12T12:21:59.746Z,999.26
2017-08-12T12:23:09.807Z,999.32
2017-08-12T12:24:20.188Z,999.43
2017-08-12T12:25:30.618Z,999.31
2017-08-12T12:26:40.998Z,999.28
2017-08-12T12:27:51.355Z,999.27
2017-08-12T12:29:01.710Z,999.25
2017-08-12T12:30:11.129Z,999.28
2017-08-12T12:31:21.527Z,999.32
2017-08-12T12:32:31.898Z,999.33
2017-08-12T12:33:42.263Z,999.27
2017-08-12T12:34:52.316Z,999.2
2017-08-12T12:36:02.666Z,999.15
2017-08-12T12:37:12.760Z,999.02
2017-08-12T12:38:22.832Z,999.06
2017-08-12T12:39:32.871Z,999.17
2017-08-12T12:40:43.227Z,999.1
2017-08-12T12:41:53.285Z,999.13
2017-08-12T12:43:03.384Z,999.08
2017-08-12T12:44:13.776Z,999.01
2017-08-12T12:45:24.133Z,998.96
2017-08-12T12:46:34.202Z,999
2017-08-12T12:47:44.265Z,999.18
2017-08-12T12:48:54.672Z,999.08
2017-08-12T12:50:05.039Z,999.01
2017-08-12T12:51:15.436Z,999.04
2017-08-12T12:52:25.816Z,999.06
2017-08-12T12:53:36.200Z,999.02
2017-08-12T12:54:46.299Z,999.04
2017-08-12T12:55:56.684Z,998.94
2017-08-12T12:57:06.751Z,998.98
2017-08-12T12:58:16.811Z,999.07
2017-08-12T12:59:27.042Z,999.09
2017-08-12T13:00:37.449Z,999.07
2017-08-12T13:01:47.530Z,998.99
2017-08-12T13:02:57.893Z,999
2017-08-12T13:04:08.279Z,998.98
2017-08-12T13:05:18.648Z,999.1
2017-08-12T13:06:29.060Z,998.89
2017-08-12T13:07:39.094Z,998.95
2017-08-12T13:08:49.490Z,998.9
2017-08-12T13:09:59.847Z,998.86
2017-08-12T13:11:09.912Z,998.85
2017-08-12T13:12:20.004Z,998.8
2017-08-12T13:13:30.069Z,998.93
2017-08-12T13:14:40.435Z,998.85
2017-08-12T13:15:50.801Z,998.83
2017-08-12T13:17:00.855Z,998.77
2017-08-12T13:18:11.256Z,998.84
2017-08-12T13:19:21.630Z,998.97
2017-08-12T13:20:32.001Z,998.88
2017-08-12T13:21:42.335Z,998.97
2017-08-12T13:22:52.084Z,998.94
2017-08-12T13:24:02.507Z,998.94
2017-08-12T13:25:12.884Z,998.81
2017-08-12T13:26:22.943Z,998.75
2017-08-12T13:27:33.006Z,998.9
2017-08-12T13:28:43.069Z,998.84
2017-08-12T13:29:53.167Z,998.83
2017-08-12T13:31:02.917Z,998.85
2017-08-12T13:32:13.293Z,998.89
2017-08-12T13:33:23.658Z,998.83
2017-08-12T13:34:34.018Z,998.86
2017-08-12T13:35:44.132Z,998.8
2017-08-12T13:36:54.184Z,998.8
2017-08-12T13:38:04.531Z,998.77
2017-08-12T13:39:14.592Z,998.63
2017-08-12T13:40:24.956Z,998.82
2017-08-12T13:41:35.057Z,998.65
2017-08-12T13:42:45.420Z,998.73
2017-08-12T13:43:55.797Z,998.63
2017-08-12T13:45:06.175Z,998.64
2017-08-12T13:46:16.214Z,998.65
2017-08-12T13:47:26.636Z,998.75
2017-08-12T13:48:36.704Z,998.74
2017-08-12T13:49:47.047Z,998.74
2017-08-12T13:50:57.405Z,998.74
2017-08-12T13:52:07.138Z,998.7
2017-08-12T13:53:17.563Z,998.69
2017-08-12T13:54:27.935Z,998.82
2017-08-12T13:55:38.292Z,998.75
2017-08-12T13:56:48.372Z,998.7
2017-08-12T13:57:58.720Z,998.68
2017-08-12T13:59:09.124Z,998.7
2017-08-12T14:00:19.179Z,998.68
2017-08-12T14:01:28.906Z,998.69
2017-08-12T14:02:39.255Z,998.55
2017-08-12T14:03:49.615Z,998.67
2017-08-12T14:04:59.712Z,998.74
2017-08-12T14:06:10.089Z,998.7
2017-08-12T14:07:20.488Z,998.69
2017-08-12T14:08:30.844Z,998.65
2017-08-12T14:09:40.881Z,998.56
2017-08-12T14:10:50.996Z,998.55
2017-08-12T14:12:01.595Z,998.55
2017-08-12T14:13:11.940Z,998.45
2017-08-12T14:14:22.296Z,998.51
2017-08-12T14:15:32.323Z,998.64
2017-08-12T14:16:42.740Z,998.58
2017-08-12T14:17:53.119Z,998.51
2017-08-12T14:19:03.174Z,998.55
2017-08-12T14:20:13.220Z,998.57
2017-08-12T14:21:23.593Z,998.57
2017-08-12T14:22:34.003Z,998.53
2017-08-12T14:23:44.367Z,998.61
2017-08-12T14:24:54.745Z,998.51
2017-08-12T14:26:05.113Z,998.62
2017-08-12T14:27:15.480Z,998.49
2017-08-12T14:28:25.567Z,998.65
2017-08-12T14:29:35.932Z,998.63
2017-08-12T14:30:45.989Z,998.51
2017-08-12T14:31:56.359Z,998.55
2017-08-12T14:33:06.736Z,998.52
2017-08-12T14:34:17.124Z,998.54
2017-08-12T14:35:27.483Z,998.58
2017-08-12T14:36:37.837Z,998.62
2017-08-12T14:37:48.201Z,998.67
2017-08-12T14:38:58.562Z,998.63
2017-08-12T14:40:08.973Z,998.64
2017-08-12T14:41:19.347Z,998.65
2017-08-12T14:42:29.714Z,998.6
2017-08-12T14:43:39.804Z,998.63
2017-08-12T14:44:50.166Z,998.58
2017-08-12T14:46:00.584Z,998.56
2017-08-12T14:47:10.970Z,998.52
2017-08-12T14:48:21.337Z,998.46
2017-08-12T14:49:31.378Z,998.52
2017-08-12T14:50:41.740Z,998.58
2017-08-12T14:51:52.138Z,998.56
2017-08-12T14:53:02.193Z,998.57
2017-08-12T14:54:12.537Z,998.49
2017-08-12T14:55:22.901Z,998.49
2017-08-12T14:56:33.271Z,998.51
2017-08-12T14:57:43.682Z,998.48
2017-08-12T14:58:54.034Z,998.5
2017-08-12T15:00:04.429Z,998.44
2017-08-12T15:01:14.783Z,998.5
2017-08-12T15:02:25.156Z,998.5
2017-08-12T15:03:35.261Z,998.47
2017-08-12T15:04:44.998Z,998.62
2017-08-12T15:05:55.358Z,998.54
2017-08-12T15:07:05.440Z,998.52
2017-08-12T15:08:15.491Z,998.49
2017-08-12T15:09:25.910Z,998.5
2017-08-12T15:10:35.951Z,998.51
2017-08-12T15:11:46.001Z,998.62